Observations for SOUTHEND-ON-SEA, United Kingdom (EGMC)

EGMC 240920Z 21008KT CAVOK 22/16 Q1015  
EGMC 240850Z 20008KT 170V230 CAVOK 23/17 Q1015  
EGMC 240820Z VRB02KT CAVOK 23/17 Q1014  
EGMC 240750Z VRB02KT CAVOK 24/18 Q1014  
EGMC 240720Z 08001KT CAVOK 21/17 Q1014  
EGMC 240650Z 09005KT 9000 NSC 20/17 Q1014   
EGMC 240620Z 08003KT 5000 BR NSC 18/16 Q1014
EGMC 240550Z 05003KT 4000 BR NSC 17/16 Q1014
EGMC 240520Z 02002KT 3000 BR NSC 17/16 Q1014
EGMC 240450Z 36001KT 3000 BR NSC 17/16 Q1014
EGMC 240420Z 01001KT 3000 BR NSC 16/15 Q1014
EGMC 240350Z 07002KT 3000 BR NSC 16/15 Q1014
EGMC 240320Z 07002KT 3000 BR NSC 16/15 Q1014
EGMC 240250Z 07002KT CAVOK 16/15 Q1014  
EGMC 240150Z 07004KT CAVOK 15/13 Q1014  
EGMC 240050Z 05003KT CAVOK 16/14 Q1014  
EGMC 232350Z 05003KT CAVOK 17/15 Q1015  
EGMC 232320Z 07005KT CAVOK 17/15 Q1015  
EGMC 232250Z 05004KT CAVOK 17/15 Q1015  
EGMC 232220Z 06005KT CAVOK 17/15 Q1015  
EGMC 232150Z 04004KT CAVOK 18/16 Q1015  
EGMC 232120Z 02003KT CAVOK 18/16 Q1015  
EGMC 232050Z 06005KT CAVOK 17/14 Q1015  
EGMC 232020Z 06004KT CAVOK 18/15 Q1015  
EGMC 231950Z 05005KT 340V080 CAVOK 18/15 Q1015  
EGMC 231920Z 06004KT 020V080 CAVOK 18/14 Q1015  
EGMC 231850Z 08004KT CAVOK 18/14 Q1015  
EGMC 231820Z 07006KT CAVOK 18/14 Q1015  
EGMC 231750Z 07006KT CAVOK 18/13 Q1015  
EGMC 231720Z 06007KT CAVOK 18/13 Q1015  
EGMC 231650Z 06008KT CAVOK 18/13 Q1016  
EGMC 231620Z 06009KT CAVOK 18/13 Q1016  
EGMC 231550Z 07011KT CAVOK 19/13 Q1016  
EGMC 231520Z 07012KT CAVOK 19/15 Q1016  
EGMC 231450Z 06012KT CAVOK 18/13 Q1016  
EGMC 231420Z 07011KT CAVOK 19/14 Q1016  
EGMC 231350Z 07013KT CAVOK 19/13 Q1016  
EGMC 231250Z 07010KT CAVOK 20/14 Q1017  
EGMC 231220Z 07010KT CAVOK 21/15 Q1017  
EGMC 231150Z 07011KT CAVOK 21/15 Q1017  
EGMC 231120Z 09011KT CAVOK 21/15 Q1017  
EGMC 231050Z 06007KT 020V090 CAVOK 21/15 Q1018  
EGMC 231020Z 06007KT 020V080 CAVOK 20/15 Q1018  
EGMC 230950Z 07009KT CAVOK 20/15 Q1018  
EGMC 230920Z 08008KT CAVOK 20/15 Q1018  
EGMC 230850Z 07008KT 030V100 9999 FEW013 19/15 Q1018